sensor_id;sensor_type;location;lat;lon;timestamp;pressure;altitude;pressure_sealevel;temperature;humidity
76653;BME280;65563;45.970;12.680;2023-01-09T00:00:41;100489.03;;;9.39;89.90
76653;BME280;65563;45.970;12.680;2023-01-09T00:01:43;100490.03;;;9.38;90.23
76653;BME280;65563;45.970;12.680;2023-01-09T00:02:44;100493.50;;;9.38;90.21
76653;BME280;65563;45.970;12.680;2023-01-09T00:03:44;100487.03;;;9.41;90.38
76653;BME280;65563;45.970;12.680;2023-01-09T00:04:44;100482.78;;;9.46;90.49
76653;BME280;65563;45.970;12.680;2023-01-09T00:05:44;100491.38;;;9.48;90.26
76653;BME280;65563;45.970;12.680;2023-01-09T00:06:45;100476.53;;;9.54;90.24
76653;BME280;65563;45.970;12.680;2023-01-09T00:07:45;100485.13;;;9.56;90.26
76653;BME280;65563;45.970;12.680;2023-01-09T00:08:45;100487.13;;;9.54;89.95
76653;BME280;65563;45.970;12.680;2023-01-09T00:09:45;100482.72;;;9.61;89.86
76653;BME280;65563;45.970;12.680;2023-01-09T00:10:47;100479.81;;;9.56;89.96
76653;BME280;65563;45.970;12.680;2023-01-09T00:11:48;100478.56;;;9.52;89.83
76653;BME280;65563;45.970;12.680;2023-01-09T00:12:48;100480.94;;;9.47;90.27
76653;BME280;65563;45.970;12.680;2023-01-09T00:13:48;100476.22;;;9.42;90.53
76653;BME280;65563;45.970;12.680;2023-01-09T00:14:49;100473.56;;;9.42;90.57
76653;BME280;65563;45.970;12.680;2023-01-09T00:15:49;100478.56;;;9.52;90.38
76653;BME280;65563;45.970;12.680;2023-01-09T00:16:49;100481.38;;;9.65;90.05
76653;BME280;65563;45.970;12.680;2023-01-09T00:17:49;100483.81;;;9.67;89.87
76653;BME280;65563;45.970;12.680;2023-01-09T00:18:49;100471.75;;;9.64;89.80
76653;BME280;65563;45.970;12.680;2023-01-09T00:19:49;100469.34;;;9.69;89.74
76653;BME280;65563;45.970;12.680;2023-01-09T00:20:50;100475.47;;;9.70;89.89
76653;BME280;65563;45.970;12.680;2023-01-09T00:21:50;100465.69;;;9.70;89.55
76653;BME280;65563;45.970;12.680;2023-01-09T00:22:50;100468.47;;;9.62;89.69
76653;BME280;65563;45.970;12.680;2023-01-09T00:23:52;100470.75;;;9.65;89.70
76653;BME280;65563;45.970;12.680;2023-01-09T00:24:52;100468.72;;;9.67;89.69
76653;BME280;65563;45.970;12.680;2023-01-09T00:27:05;100470.34;;;9.68;89.90
76653;BME280;65563;45.970;12.680;2023-01-09T00:28:05;100470.75;;;9.65;89.82
76653;BME280;65563;45.970;12.680;2023-01-09T00:29:05;100469.28;;;9.63;89.96
76653;BME280;65563;45.970;12.680;2023-01-09T00:30:05;100465.25;;;9.67;90.07
76653;BME280;65563;45.970;12.680;2023-01-09T00:31:06;100467.63;;;9.62;89.96
76653;BME280;65563;45.970;12.680;2023-01-09T00:32:07;100461.50;;;9.61;90.11
76653;BME280;65563;45.970;12.680;2023-01-09T00:33:07;100460.47;;;9.55;90.27
76653;BME280;65563;45.970;12.680;2023-01-09T00:34:07;100459.06;;;9.60;90.22
76653;BME280;65563;45.970;12.680;2023-01-09T00:35:08;100464.16;;;9.61;90.33
76653;BME280;65563;45.970;12.680;2023-01-09T00:36:12;100461.13;;;9.64;90.13
76653;BME280;65563;45.970;12.680;2023-01-09T00:37:12;100450.53;;;9.64;90.20
76653;BME280;65563;45.970;12.680;2023-01-09T00:38:12;100450.53;;;9.64;90.11
76653;BME280;65563;45.970;12.680;2023-01-09T00:39:12;100450.59;;;9.71;90.13
76653;BME280;65563;45.970;12.680;2023-01-09T00:40:13;100448.09;;;9.63;89.61
76653;BME280;65563;45.970;12.680;2023-01-09T00:41:14;100452.94;;;9.59;89.94
76653;BME280;65563;45.970;12.680;2023-01-09T00:42:17;100449.91;;;9.62;89.87
76653;BME280;65563;45.970;12.680;2023-01-09T00:43:18;100452.06;;;9.52;89.93
76653;BME280;65563;45.970;12.680;2023-01-09T00:44:20;100446.63;;;9.60;89.98
76653;BME280;65563;45.970;12.680;2023-01-09T00:45:23;100439.03;;;9.57;89.96
76653;BME280;65563;45.970;12.680;2023-01-09T00:46:25;100440.69;;;9.58;90.11
76653;BME280;65563;45.970;12.680;2023-01-09T00:47:34;100443.16;;;9.60;90.21
76653;BME280;65563;45.970;12.680;2023-01-09T00:48:39;100439.94;;;9.64;90.18
76653;BME280;65563;45.970;12.680;2023-01-09T00:49:40;100433.63;;;9.65;90.11
76653;BME280;65563;45.970;12.680;2023-01-09T00:50:41;100433.44;;;9.67;90.07
76653;BME280;65563;45.970;12.680;2023-01-09T00:51:41;100435.88;;;9.68;89.82
76653;BME280;65563;45.970;12.680;2023-01-09T00:52:42;100428.56;;;9.70;89.93
76653;BME280;65563;45.970;12.680;2023-01-09T00:53:43;100426.13;;;9.69;90.09
76653;BME280;65563;45.970;12.680;2023-01-09T00:54:43;100426.56;;;9.72;89.81
76653;BME280;65563;45.970;12.680;2023-01-09T00:55:44;100425.28;;;9.68;89.99
76653;BME280;65563;45.970;12.680;2023-01-09T00:56:44;100429.16;;;9.66;89.93
76653;BME280;65563;45.970;12.680;2023-01-09T00:57:44;100427.38;;;9.73;90.32
76653;BME280;65563;45.970;12.680;2023-01-09T00:58:45;100425.28;;;9.68;90.00
76653;BME280;65563;45.970;12.680;2023-01-09T00:59:45;100416.44;;;9.61;90.35
76653;BME280;65563;45.970;12.680;2023-01-09T01:00:45;100422.81;;;9.67;90.18
76653;BME280;65563;45.970;12.680;2023-01-09T01:01:46;100413.84;;;9.68;90.40
76653;BME280;65563;45.970;12.680;2023-01-09T01:02:46;100418.72;;;9.64;90.43
76653;BME280;65563;45.970;12.680;2023-01-09T01:03:46;100414.50;;;9.70;90.42
76653;BME280;65563;45.970;12.680;2023-01-09T01:04:46;100412.66;;;9.70;90.48
76653;BME280;65563;45.970;12.680;2023-01-09T01:05:46;100415.06;;;9.65;90.63
76653;BME280;65563;45.970;12.680;2023-01-09T01:06:46;100410.00;;;9.70;90.51
76653;BME280;65563;45.970;12.680;2023-01-09T01:07:47;100404.31;;;9.73;90.31
76653;BME280;65563;45.970;12.680;2023-01-09T01:08:47;100414.94;;;9.73;90.53
76653;BME280;65563;45.970;12.680;2023-01-09T01:09:47;100418.16;;;9.69;90.40
76653;BME280;65563;45.970;12.680;2023-01-09T01:10:48;100413.09;;;9.74;90.68
76653;BME280;65563;45.970;12.680;2023-01-09T01:11:48;100416.75;;;9.73;90.55
76653;BME280;65563;45.970;12.680;2023-01-09T01:12:48;100413.03;;;9.67;90.52
76653;BME280;65563;45.970;12.680;2023-01-09T01:13:49;100411.78;;;9.63;90.56
76653;BME280;65563;45.970;12.680;2023-01-09T01:14:50;100408.97;;;9.71;90.86
76653;BME280;65563;45.970;12.680;2023-01-09T01:15:51;100411.63;;;9.71;90.63
76653;BME280;65563;45.970;12.680;2023-01-09T01:16:51;100409.41;;;9.75;90.74
76653;BME280;65563;45.970;12.680;2023-01-09T01:17:51;100409.25;;;9.76;90.71
76653;BME280;65563;45.970;12.680;2023-01-09T01:18:51;100405.69;;;9.91;90.71
76653;BME280;65563;45.970;12.680;2023-01-09T01:19:51;100406.06;;;9.88;90.42
76653;BME280;65563;45.970;12.680;2023-01-09T01:20:52;100410.28;;;9.82;90.51
76653;BME280;65563;45.970;12.680;2023-01-09T01:21:52;100408.66;;;9.81;90.55
76653;BME280;65563;45.970;12.680;2023-01-09T01:22:52;100400.19;;;9.92;90.53
76653;BME280;65563;45.970;12.680;2023-01-09T01:23:52;100403.63;;;9.93;90.43
76653;BME280;65563;45.970;12.680;2023-01-09T01:24:52;100396.91;;;9.90;90.39
76653;BME280;65563;45.970;12.680;2023-01-09T01:25:52;100401.38;;;9.90;90.61
76653;BME280;65563;45.970;12.680;2023-01-09T01:26:53;100403.16;;;9.83;90.62
76653;BME280;65563;45.970;12.680;2023-01-09T01:27:53;100404.19;;;9.82;90.58
76653;BME280;65563;45.970;12.680;2023-01-09T01:28:53;100403.56;;;9.79;90.75
76653;BME280;65563;45.970;12.680;2023-01-09T01:29:53;100397.84;;;9.83;90.90
76653;BME280;65563;45.970;12.680;2023-01-09T01:30:53;100399.69;;;9.82;90.74
76653;BME280;65563;45.970;12.680;2023-01-09T01:31:54;100399.91;;;9.80;90.88
76653;BME280;65563;45.970;12.680;2023-01-09T01:32:54;100392.75;;;9.81;90.92
76653;BME280;65563;45.970;12.680;2023-01-09T01:33:54;100395.47;;;9.88;90.68
76653;BME280;65563;45.970;12.680;2023-01-09T01:34:54;100389.13;;;9.89;90.47
76653;BME280;65563;45.970;12.680;2023-01-09T01:37:00;100381.38;;;9.87;90.45
76653;BME280;65563;45.970;12.680;2023-01-09T01:38:01;100368.34;;;9.92;90.33
76653;BME280;65563;45.970;12.680;2023-01-09T01:39:01;100379.28;;;9.83;90.42
76653;BME280;65563;45.970;12.680;2023-01-09T01:40:02;100371.47;;;9.74;90.54
76653;BME280;65563;45.970;12.680;2023-01-09T01:41:03;100366.88;;;9.90;90.55
76653;BME280;65563;45.970;12.680;2023-01-09T01:42:03;100370.63;;;9.95;90.61
76653;BME280;65563;45.970;12.680;2023-01-09T01:43:04;100365.91;;;9.91;90.57
76653;BME280;65563;45.970;12.680;2023-01-09T01:44:05;100360.97;;;9.88;90.79
76653;BME280;65563;45.970;12.680;2023-01-09T01:46:09;100364.66;;;9.87;90.77
76653;BME280;65563;45.970;12.680;2023-01-09T01:47:09;100360.34;;;9.86;90.64
76653;BME280;65563;45.970;12.680;2023-01-09T01:48:10;100358.31;;;9.88;90.74
76653;BME280;65563;45.970;12.680;2023-01-09T01:49:13;100358.28;;;9.81;90.81
76653;BME280;65563;45.970;12.680;2023-01-09T01:50:17;100360.50;;;9.77;90.98
76653;BME280;65563;45.970;12.680;2023-01-09T01:51:18;100350.97;;;9.83;90.80
76653;BME280;65563;45.970;12.680;2023-01-09T01:52:20;100342.59;;;9.86;90.88
76653;BME280;65563;45.970;12.680;2023-01-09T01:53:23;100345.06;;;9.88;90.64
76653;BME280;65563;45.970;12.680;2023-01-09T01:54:25;100343.19;;;9.82;90.76
76653;BME280;65563;45.970;12.680;2023-01-09T01:55:27;100349.56;;;9.87;90.80
76653;BME280;65563;45.970;12.680;2023-01-09T01:56:28;100341.00;;;9.92;90.70
76653;BME280;65563;45.970;12.680;2023-01-09T01:57:29;100332.41;;;9.90;90.63
76653;BME280;65563;45.970;12.680;2023-01-09T01:58:30;100331.97;;;9.86;90.67
76653;BME280;65563;45.970;12.680;2023-01-09T01:59:33;100334.25;;;9.89;90.77
76653;BME280;65563;45.970;12.680;2023-01-09T02:00:37;100328.75;;;9.91;90.59
76653;BME280;65563;45.970;12.680;2023-01-09T02:01:39;100319.75;;;9.85;90.88
76653;BME280;65563;45.970;12.680;2023-01-09T02:02:41;100326.13;;;9.91;90.70
76653;BME280;65563;45.970;12.680;2023-01-09T02:03:41;100318.53;;;9.88;90.86
76653;BME280;65563;45.970;12.680;2023-01-09T02:04:42;100310.81;;;9.93;90.57
76653;BME280;65563;45.970;12.680;2023-01-09T02:05:42;100304.69;;;9.92;90.94
76653;BME280;65563;45.970;12.680;2023-01-09T02:06:43;100302.63;;;9.88;90.78
76653;BME280;65563;45.970;12.680;2023-01-09T02:07:45;100294.41;;;9.83;90.98
76653;BME280;65563;45.970;12.680;2023-01-09T02:08:46;100300.75;;;9.82;91.07
76653;BME280;65563;45.970;12.680;2023-01-09T02:09:46;100300.56;;;9.83;91.04
76653;BME280;65563;45.970;12.680;2023-01-09T02:10:47;100299.72;;;9.83;91.06
76653;BME280;65563;45.970;12.680;2023-01-09T02:11:49;100285.47;;;9.84;91.27
76653;BME280;65563;45.970;12.680;2023-01-09T02:12:50;100291.59;;;9.84;91.02
76653;BME280;65563;45.970;12.680;2023-01-09T02:13:50;100288.13;;;9.84;91.29
76653;BME280;65563;45.970;12.680;2023-01-09T02:14:53;100288.72;;;9.86;90.99
76653;BME280;65563;45.970;12.680;2023-01-09T02:16:06;100288.13;;;9.84;91.19
76653;BME280;65563;45.970;12.680;2023-01-09T02:22:31;100261.44;;;9.92;90.70
76653;BME280;65563;45.970;12.680;2023-01-09T02:23:42;100252.44;;;9.93;90.66
76653;BME280;65563;45.970;12.680;2023-01-09T02:30:34;100228.59;;;9.99;90.09
76653;BME280;65563;45.970;12.680;2023-01-09T02:32:52;100218.97;;;9.92;90.46
76653;BME280;65563;45.970;12.680;2023-01-09T02:34:05;100218.97;;;9.92;90.15
76653;BME280;65563;45.970;12.680;2023-01-09T02:35:21;100216.53;;;9.90;90.27
76653;BME280;65563;45.970;12.680;2023-01-09T02:37:36;100208.56;;;9.84;90.27
76653;BME280;65563;45.970;12.680;2023-01-09T02:40:02;100207.91;;;9.82;90.40
76653;BME280;65563;45.970;12.680;2023-01-09T02:41:18;100212.19;;;9.83;90.44
76653;BME280;65563;45.970;12.680;2023-01-09T02:42:22;100202.19;;;9.78;90.14
76653;BME280;65563;45.970;12.680;2023-01-09T02:43:23;100208.69;;;9.75;90.31
76653;BME280;65563;45.970;12.680;2023-01-09T02:44:25;100208.31;;;9.78;90.40
76653;BME280;65563;45.970;12.680;2023-01-09T02:45:25;100208.94;;;9.80;90.13
76653;BME280;65563;45.970;12.680;2023-01-09T02:46:26;100210.97;;;9.78;90.12
76653;BME280;65563;45.970;12.680;2023-01-09T02:48:29;100199.13;;;9.74;90.30
76653;BME280;65563;45.970;12.680;2023-01-09T02:49:31;100202.19;;;9.78;89.95
76653;BME280;65563;45.970;12.680;2023-01-09T02:51:14;100205.28;;;9.82;90.16
76653;BME280;65563;45.970;12.680;2023-01-09T02:52:01;100187.53;;;9.82;90.17
76653;BME280;65563;45.970;12.680;2023-01-09T03:04:13;100178.13;;;9.73;89.76
76653;BME280;65563;45.970;12.680;2023-01-09T03:05:19;100177.69;;;9.69;89.90
76653;BME280;65563;45.970;12.680;2023-01-09T03:06:32;100174.41;;;9.67;89.84
76653;BME280;65563;45.970;12.680;2023-01-09T03:07:35;100171.75;;;9.67;89.67
76653;BME280;65563;45.970;12.680;2023-01-09T03:08:39;100173.16;;;9.63;89.44
76653;BME280;65563;45.970;12.680;2023-01-09T03:09:40;100162.94;;;9.60;89.56
76653;BME280;65563;45.970;12.680;2023-01-09T03:13:15;100153.75;;;9.56;89.63
76653;BME280;65563;45.970;12.680;2023-01-09T03:14:18;100151.91;;;9.56;89.72
76653;BME280;65563;45.970;12.680;2023-01-09T03:15:21;100157.66;;;9.60;90.09
76653;BME280;65563;45.970;12.680;2023-01-09T03:16:23;100149.91;;;9.59;90.16
76653;BME280;65563;45.970;12.680;2023-01-09T03:17:31;100153.97;;;9.61;90.10
76653;BME280;65563;45.970;12.680;2023-01-09T03:18:33;100151.13;;;9.63;89.98
76653;BME280;65563;45.970;12.680;2023-01-09T03:19:36;100149.94;;;9.65;90.23
76653;BME280;65563;45.970;12.680;2023-01-09T03:20:36;100153.81;;;9.69;90.10
76653;BME280;65563;45.970;12.680;2023-01-09T03:21:37;100145.25;;;9.67;90.18
76653;BME280;65563;45.970;12.680;2023-01-09T03:22:39;100149.13;;;9.71;90.42
76653;BME280;65563;45.970;12.680;2023-01-09T03:23:52;100147.72;;;9.69;90.38
76653;BME280;65563;45.970;12.680;2023-01-09T03:24:53;100151.78;;;9.71;90.47
76653;BME280;65563;45.970;12.680;2023-01-09T03:25:53;100150.97;;;9.71;90.35
76653;BME280;65563;45.970;12.680;2023-01-09T03:26:53;100149.50;;;9.68;90.62
76653;BME280;65563;45.970;12.680;2023-01-09T03:28:03;100154.22;;;9.66;90.22
76653;BME280;65563;45.970;12.680;2023-01-09T03:29:04;100148.69;;;9.68;89.95
76653;BME280;65563;45.970;12.680;2023-01-09T03:30:05;100150.16;;;9.70;90.02
76653;BME280;65563;45.970;12.680;2023-01-09T03:31:05;100154.84;;;9.75;89.97
76653;BME280;65563;45.970;12.680;2023-01-09T03:32:05;100155.88;;;9.74;90.02
76653;BME280;65563;45.970;12.680;2023-01-09T03:33:05;100149.38;;;9.76;89.67
76653;BME280;65563;45.970;12.680;2023-01-09T03:34:06;100147.53;;;9.77;89.79
76653;BME280;65563;45.970;12.680;2023-01-09T03:35:06;100143.84;;;9.78;89.65
76653;BME280;65563;45.970;12.680;2023-01-09T03:36:06;100143.84;;;9.78;89.58
76653;BME280;65563;45.970;12.680;2023-01-09T03:37:07;100137.31;;;9.74;89.73
76653;BME280;65563;45.970;12.680;2023-01-09T03:38:07;100138.94;;;9.75;89.97
76653;BME280;65563;45.970;12.680;2023-01-09T03:39:07;100133.63;;;9.75;89.85
76653;BME280;65563;45.970;12.680;2023-01-09T03:40:08;100134.44;;;9.75;89.52
76653;BME280;65563;45.970;12.680;2023-01-09T03:41:08;100127.53;;;9.74;89.92
76653;BME280;65563;45.970;12.680;2023-01-09T03:42:08;100118.97;;;9.72;89.70
76653;BME280;65563;45.970;12.680;2023-01-09T03:43:08;100123.41;;;9.72;89.76
76653;BME280;65563;45.970;12.680;2023-01-09T03:44:08;100131.59;;;9.70;89.98
76653;BME280;65563;45.970;12.680;2023-01-09T03:45:09;100127.09;;;9.71;90.10
76653;BME280;65563;45.970;12.680;2023-01-09T03:46:09;100128.31;;;9.68;89.99
76653;BME280;65563;45.970;12.680;2023-01-09T03:47:09;100122.59;;;9.71;90.13
76653;BME280;65563;45.970;12.680;2023-01-09T03:48:09;100123.00;;;9.68;90.16
76653;BME280;65563;45.970;12.680;2023-01-09T03:49:10;100119.78;;;9.73;90.50
76653;BME280;65563;45.970;12.680;2023-01-09T03:50:10;100117.31;;;9.71;90.12
76653;BME280;65563;45.970;12.680;2023-01-09T03:51:10;100110.38;;;9.70;90.14
76653;BME280;65563;45.970;12.680;2023-01-09T03:52:10;100114.22;;;9.68;90.16
76653;BME280;65563;45.970;12.680;2023-01-09T03:53:11;100106.28;;;9.68;90.10
76653;BME280;65563;45.970;12.680;2023-01-09T03:54:11;100106.50;;;9.66;90.54
76653;BME280;65563;45.970;12.680;2023-01-09T03:55:11;100096.47;;;9.62;90.32
76653;BME280;65563;45.970;12.680;2023-01-09T03:56:11;100095.84;;;9.60;90.57
76653;BME280;65563;45.970;12.680;2023-01-09T03:57:11;100103.81;;;9.60;90.72
76653;BME280;65563;45.970;12.680;2023-01-09T03:58:12;100096.03;;;9.58;90.66
76653;BME280;65563;45.970;12.680;2023-01-09T03:59:12;100095.44;;;9.56;90.81
76653;BME280;65563;45.970;12.680;2023-01-09T04:00:12;100095.66;;;9.61;90.81
76653;BME280;65563;45.970;12.680;2023-01-09T04:01:13;100088.31;;;9.63;90.88
76653;BME280;65563;45.970;12.680;2023-01-09T04:02:13;100086.50;;;9.70;90.48
76653;BME280;65563;45.970;12.680;2023-01-09T04:03:13;100085.69;;;9.70;90.48
76653;BME280;65563;45.970;12.680;2023-01-09T04:04:14;100090.38;;;9.68;90.81
76653;BME280;65563;45.970;12.680;2023-01-09T04:05:14;100090.16;;;9.63;90.66
76653;BME280;65563;45.970;12.680;2023-01-09T04:06:14;100088.97;;;9.65;90.72
76653;BME280;65563;45.970;12.680;2023-01-09T04:07:14;100086.72;;;9.69;90.86
76653;BME280;65563;45.970;12.680;2023-01-09T04:08:15;100085.88;;;9.68;90.92
76653;BME280;65563;45.970;12.680;2023-01-09T04:09:15;100082.38;;;9.61;90.85
76653;BME280;65563;45.970;12.680;2023-01-09T04:10:15;100088.31;;;9.63;90.68
76653;BME280;65563;45.970;12.680;2023-01-09T04:11:15;100083.66;;;9.65;90.68
76653;BME280;65563;45.970;12.680;2023-01-09T04:12:16;100081.59;;;9.67;90.67
76653;BME280;65563;45.970;12.680;2023-01-09T04:13:16;100073.47;;;9.69;90.60
76653;BME280;65563;45.970;12.680;2023-01-09T04:14:16;100073.88;;;9.66;90.47
76653;BME280;65563;45.970;12.680;2023-01-09T04:15:16;100076.50;;;9.66;90.70
76653;BME280;65563;45.970;12.680;2023-01-09T04:16:17;100075.69;;;9.65;90.76
76653;BME280;65563;45.970;12.680;2023-01-09T04:17:17;100075.50;;;9.67;90.59
76653;BME280;65563;45.970;12.680;2023-01-09T04:18:17;100079.78;;;9.68;90.77
76653;BME280;65563;45.970;12.680;2023-01-09T04:19:17;100072.84;;;9.67;90.69
76653;BME280;65563;45.970;12.680;2023-01-09T04:20:17;100076.53;;;9.72;91.01
76653;BME280;65563;45.970;12.680;2023-01-09T04:21:17;100081.84;;;9.72;90.63
76653;BME280;65563;45.970;12.680;2023-01-09T04:22:18;100082.22;;;9.69;90.65
76653;BME280;65563;45.970;12.680;2023-01-09T04:23:18;100079.78;;;9.68;90.78
76653;BME280;65563;45.970;12.680;2023-01-09T04:24:18;100076.13;;;9.69;90.80
76653;BME280;65563;45.970;12.680;2023-01-09T04:25:18;100069.97;;;9.68;90.90
76653;BME280;65563;45.970;12.680;2023-01-09T04:26:18;100074.88;;;9.71;90.74
76653;BME280;65563;45.970;12.680;2023-01-09T04:27:19;100075.28;;;9.68;90.86
76653;BME280;65563;45.970;12.680;2023-01-09T04:28:19;100073.47;;;9.69;90.93
76653;BME280;65563;45.970;12.680;2023-01-09T04:29:19;100078.78;;;9.69;90.99
76653;BME280;65563;45.970;12.680;2023-01-09T04:30:19;100075.50;;;9.67;90.88
76653;BME280;65563;45.970;12.680;2023-01-09T04:31:19;100069.38;;;9.66;91.00
76653;BME280;65563;45.970;12.680;2023-01-09T04:32:20;100070.81;;;9.69;90.95
76653;BME280;65563;45.970;12.680;2023-01-09T04:33:20;100077.13;;;9.68;90.70
76653;BME280;65563;45.970;12.680;2023-01-09T04:34:20;100074.28;;;9.69;90.64
76653;BME280;65563;45.970;12.680;2023-01-09T04:35:20;100071.00;;;9.67;90.58
76653;BME280;65563;45.970;12.680;2023-01-09T04:36:21;100069.97;;;9.68;90.68
76653;BME280;65563;45.970;12.680;2023-01-09T04:37:21;100069.38;;;9.66;90.72
76653;BME280;65563;45.970;12.680;2023-01-09T04:38:21;100069.97;;;9.68;90.53
76653;BME280;65563;45.970;12.680;2023-01-09T04:39:21;100063.69;;;9.69;90.48
76653;BME280;65563;45.970;12.680;2023-01-09T04:40:22;100065.69;;;9.67;90.48
76653;BME280;65563;45.970;12.680;2023-01-09T04:41:22;100072.44;;;9.70;90.45
76653;BME280;65563;45.970;12.680;2023-01-09T04:42:22;100065.50;;;9.69;90.42
76653;BME280;65563;45.970;12.680;2023-01-09T04:43:22;100058.56;;;9.68;90.61
76653;BME280;65563;45.970;12.680;2023-01-09T04:44:23;100061.84;;;9.70;90.34
76653;BME280;65563;45.970;12.680;2023-01-09T04:45:23;100065.50;;;9.69;90.27
76653;BME280;65563;45.970;12.680;2023-01-09T04:46:23;100060.41;;;9.67;90.24
76653;BME280;65563;45.970;12.680;2023-01-09T04:47:23;100068.97;;;9.69;90.22
76653;BME280;65563;45.970;12.680;2023-01-09T04:48:24;100057.34;;;9.70;90.18
76653;BME280;65563;45.970;12.680;2023-01-09T04:49:24;100063.03;;;9.67;90.54
76653;BME280;65563;45.970;12.680;2023-01-09T04:50:24;100062.22;;;9.67;90.52
76653;BME280;65563;45.970;12.680;2023-01-09T04:51:24;100067.31;;;9.68;90.36
76653;BME280;65563;45.970;12.680;2023-01-09T04:52:25;100064.66;;;9.68;90.41
76653;BME280;65563;45.970;12.680;2023-01-09T04:53:25;100055.72;;;9.69;90.21
76653;BME280;65563;45.970;12.680;2023-01-09T04:54:25;100068.16;;;9.69;90.17
76653;BME280;65563;45.970;12.680;2023-01-09T04:55:25;100072.84;;;9.67;90.38
76653;BME280;65563;45.970;12.680;2023-01-09T04:56:25;100064.66;;;9.68;90.07
76653;BME280;65563;45.970;12.680;2023-01-09T04:57:25;100069.97;;;9.68;90.27
76653;BME280;65563;45.970;12.680;2023-01-09T04:58:25;100065.69;;;9.67;90.25
76653;BME280;65563;45.970;12.680;2023-01-09T04:59:26;100068.34;;;9.67;90.12
76653;BME280;65563;45.970;12.680;2023-01-09T05:00:26;100065.69;;;9.67;90.04
76653;BME280;65563;45.970;12.680;2023-01-09T05:01:26;100063.25;;;9.66;89.96
76653;BME280;65563;45.970;12.680;2023-01-09T05:02:26;100067.75;;;9.65;89.57
76653;BME280;65563;45.970;12.680;2023-01-09T05:03:26;100058.94;;;9.65;89.67
76653;BME280;65563;45.970;12.680;2023-01-09T05:04:26;100063.44;;;9.64;89.69
76653;BME280;65563;45.970;12.680;2023-01-09T05:05:27;100058.13;;;9.64;89.24
76653;BME280;65563;45.970;12.680;2023-01-09T05:06:27;100052.41;;;9.61;89.29
76653;BME280;65563;45.970;12.680;2023-01-09T05:07:27;100058.13;;;9.64;88.90
76653;BME280;65563;45.970;12.680;2023-01-09T05:08:27;100055.69;;;9.63;89.12
76653;BME280;65563;45.970;12.680;2023-01-09T05:09:28;100060.19;;;9.62;89.09
76653;BME280;65563;45.970;12.680;2023-01-09T05:10:28;100059.94;;;9.57;88.96
76653;BME280;65563;45.970;12.680;2023-01-09T05:11:28;100059.34;;;9.55;88.95
76653;BME280;65563;45.970;12.680;2023-01-09T05:12:28;100054.06;;;9.55;89.13
76653;BME280;65563;45.970;12.680;2023-01-09T05:13:28;100055.44;;;9.51;88.81
76653;BME280;65563;45.970;12.680;2023-01-09T05:14:29;100061.16;;;9.48;88.94
76653;BME280;65563;45.970;12.680;2023-01-09T05:15:29;100063.38;;;9.51;89.01
76653;BME280;65563;45.970;12.680;2023-01-09T05:16:29;100056.84;;;9.47;88.86
76653;BME280;65563;45.970;12.680;2023-01-09T05:17:29;100065.44;;;9.49;88.62
76653;BME280;65563;45.970;12.680;2023-01-09T05:18:29;100070.91;;;9.47;88.74
76653;BME280;65563;45.970;12.680;2023-01-09T05:19:29;100071.13;;;9.46;88.74
76653;BME280;65563;45.970;12.680;2023-01-09T05:20:30;100064.22;;;9.45;88.70
76653;BME280;65563;45.970;12.680;2023-01-09T05:21:30;100067.84;;;9.44;88.65
76653;BME280;65563;45.970;12.680;2023-01-09T05:22:30;100057.66;;;9.41;88.96
76653;BME280;65563;45.970;12.680;2023-01-09T05:23:30;100059.28;;;9.42;89.17
76653;BME280;65563;45.970;12.680;2023-01-09T05:24:30;100063.78;;;9.41;89.34
76653;BME280;65563;45.970;12.680;2023-01-09T05:25:31;100057.66;;;9.41;89.28
76653;BME280;65563;45.970;12.680;2023-01-09T05:26:31;100057.66;;;9.41;89.28
76653;BME280;65563;45.970;12.680;2023-01-09T05:27:31;100054.19;;;9.40;89.46
76653;BME280;65563;45.970;12.680;2023-01-09T05:28:31;100059.69;;;9.39;89.57
76653;BME280;65563;45.970;12.680;2023-01-09T05:29:31;100062.09;;;9.33;89.45
76653;BME280;65563;45.970;12.680;2023-01-09T05:30:31;100061.50;;;9.31;89.60
76653;BME280;65563;45.970;12.680;2023-01-09T05:31:32;100068.84;;;9.36;89.64
76653;BME280;65563;45.970;12.680;2023-01-09T05:32:32;100056.78;;;9.33;89.59
76653;BME280;65563;45.970;12.680;2023-01-09T05:33:32;100059.25;;;9.35;89.82
76653;BME280;65563;45.970;12.680;2023-01-09T05:34:32;100057.66;;;9.41;89.47
76653;BME280;65563;45.970;12.680;2023-01-09T05:35:32;100060.09;;;9.36;89.46
76653;BME280;65563;45.970;12.680;2023-01-09T05:36:33;100057.44;;;9.36;89.44
76653;BME280;65563;45.970;12.680;2023-01-09T05:37:33;100066.19;;;9.36;89.32
76653;BME280;65563;45.970;12.680;2023-01-09T05:38:33;100060.47;;;9.32;89.59
76653;BME280;65563;45.970;12.680;2023-01-09T05:39:33;100058.84;;;9.31;89.65
76653;BME280;65563;45.970;12.680;2023-01-09T05:40:34;100058.03;;;9.31;89.55
76653;BME280;65563;45.970;12.680;2023-01-09T05:41:34;100053.72;;;9.30;90.02
76653;BME280;65563;45.970;12.680;2023-01-09T05:42:34;100057.00;;;9.32;89.82
76653;BME280;65563;45.970;12.680;2023-01-09T05:43:34;100055.97;;;9.33;89.91
76653;BME280;65563;45.970;12.680;2023-01-09T05:44:34;100060.88;;;9.36;89.88
76653;BME280;65563;45.970;12.680;2023-01-09T05:45:34;100058.44;;;9.35;90.05
76653;BME280;65563;45.970;12.680;2023-01-09T05:46:35;100059.44;;;9.33;89.87
76653;BME280;65563;45.970;12.680;2023-01-09T05:47:35;100062.09;;;9.33;89.59
76653;BME280;65563;45.970;12.680;2023-01-09T05:48:35;100060.47;;;9.32;89.60
76653;BME280;65563;45.970;12.680;2023-01-09T05:49:35;100060.69;;;9.31;89.81
76653;BME280;65563;45.970;12.680;2023-01-09T05:50:35;100065.16;;;9.30;89.77
76653;BME280;65563;45.970;12.680;2023-01-09T05:51:36;100061.50;;;9.31;89.81
76653;BME280;65563;45.970;12.680;2023-01-09T05:52:36;100062.50;;;9.30;89.81